sensor_id;sensor_type;location;lat;lon;timestamp;P1;durP1;ratioP1;P2;durP2;ratioP2
6197;SDS011;3132;42.622;23.328;2023-08-30T00:00:03;15.90;;;14.30;;
6197;SDS011;3132;42.622;23.328;2023-08-30T00:02:29;15.67;;;14.17;;
6197;SDS011;3132;42.622;23.328;2023-08-30T00:04:58;17.60;;;15.80;;
6197;SDS011;3132;42.622;23.328;2023-08-30T00:07:24;17.27;;;15.15;;
6197;SDS011;3132;42.622;23.328;2023-08-30T00:09:49;17.70;;;15.30;;
6197;SDS011;3132;42.622;23.328;2023-08-30T00:12:15;19.33;;;14.48;;
6197;SDS011;3132;42.622;23.328;2023-08-30T00:14:41;16.98;;;15.23;;
6197;SDS011;3132;42.622;23.328;2023-08-30T00:17:06;17.27;;;15.53;;
6197;SDS011;3132;42.622;23.328;2023-08-30T00:19:32;17.23;;;15.53;;
6197;SDS011;3132;42.622;23.328;2023-08-30T00:21:57;16.97;;;15.30;;
6197;SDS011;3132;42.622;23.328;2023-08-30T00:24:22;15.98;;;14.52;;
6197;SDS011;3132;42.622;23.328;2023-08-30T00:26:48;16.58;;;14.88;;
6197;SDS011;3132;42.622;23.328;2023-08-30T00:29:13;17.70;;;15.47;;
6197;SDS011;3132;42.622;23.328;2023-08-30T00:31:39;15.65;;;14.35;;
6197;SDS011;3132;42.622;23.328;2023-08-30T00:34:04;14.90;;;13.40;;
6197;SDS011;3132;42.622;23.328;2023-08-30T00:36:29;15.80;;;14.30;;
6197;SDS011;3132;42.622;23.328;2023-08-30T00:38:55;14.90;;;13.60;;
6197;SDS011;3132;42.622;23.328;2023-08-30T00:41:20;15.73;;;14.23;;
6197;SDS011;3132;42.622;23.328;2023-08-30T00:43:46;14.40;;;13.10;;
6197;SDS011;3132;42.622;23.328;2023-08-30T00:46:11;13.50;;;12.37;;
6197;SDS011;3132;42.622;23.328;2023-08-30T00:48:38;14.03;;;12.87;;
6197;SDS011;3132;42.622;23.328;2023-08-30T00:51:04;13.93;;;12.50;;
6197;SDS011;3132;42.622;23.328;2023-08-30T00:53:30;14.87;;;13.37;;
6197;SDS011;3132;42.622;23.328;2023-08-30T00:55:55;14.10;;;12.50;;
6197;SDS011;3132;42.622;23.328;2023-08-30T00:58:21;13.47;;;12.17;;
6197;SDS011;3132;42.622;23.328;2023-08-30T01:00:46;13.73;;;12.30;;
6197;SDS011;3132;42.622;23.328;2023-08-30T01:03:12;13.48;;;12.18;;
6197;SDS011;3132;42.622;23.328;2023-08-30T01:05:38;13.57;;;12.47;;
6197;SDS011;3132;42.622;23.328;2023-08-30T01:08:03;13.43;;;12.23;;
6197;SDS011;3132;42.622;23.328;2023-08-30T01:11:04;13.10;;;11.83;;
6197;SDS011;3132;42.622;23.328;2023-08-30T01:13:33;12.67;;;11.67;;
6197;SDS011;3132;42.622;23.328;2023-08-30T01:16:04;13.10;;;12.00;;
6197;SDS011;3132;42.622;23.328;2023-08-30T01:18:32;14.23;;;12.83;;
6197;SDS011;3132;42.622;23.328;2023-08-30T01:21:00;14.33;;;12.20;;
6197;SDS011;3132;42.622;23.328;2023-08-30T01:23:47;13.23;;;12.03;;
6197;SDS011;3132;42.622;23.328;2023-08-30T01:29:03;13.43;;;12.30;;
6197;SDS011;3132;42.622;23.328;2023-08-30T01:31:30;13.77;;;12.47;;
6197;SDS011;3132;42.622;23.328;2023-08-30T01:33:58;13.07;;;11.97;;
6197;SDS011;3132;42.622;23.328;2023-08-30T01:36:24;12.47;;;11.40;;
6197;SDS011;3132;42.622;23.328;2023-08-30T01:38:50;14.70;;;13.20;;
6197;SDS011;3132;42.622;23.328;2023-08-30T01:41:17;13.53;;;12.33;;
6197;SDS011;3132;42.622;23.328;2023-08-30T01:43:43;13.93;;;12.73;;
6197;SDS011;3132;42.622;23.328;2023-08-30T01:46:09;13.18;;;11.98;;
6197;SDS011;3132;42.622;23.328;2023-08-30T01:48:35;13.80;;;12.50;;
6197;SDS011;3132;42.622;23.328;2023-08-30T01:51:01;13.57;;;12.23;;
6197;SDS011;3132;42.622;23.328;2023-08-30T01:53:28;14.07;;;12.80;;
6197;SDS011;3132;42.622;23.328;2023-08-30T01:55:54;12.07;;;11.13;;
6197;SDS011;3132;42.622;23.328;2023-08-30T01:58:20;12.65;;;11.57;;
6197;SDS011;3132;42.622;23.328;2023-08-30T02:00:45;13.90;;;12.47;;
6197;SDS011;3132;42.622;23.328;2023-08-30T02:03:11;13.43;;;12.13;;
6197;SDS011;3132;42.622;23.328;2023-08-30T02:08:59;12.82;;;11.82;;
6197;SDS011;3132;42.622;23.328;2023-08-30T02:11:30;13.27;;;12.07;;
6197;SDS011;3132;42.622;23.328;2023-08-30T02:13:59;13.57;;;12.20;;
6197;SDS011;3132;42.622;23.328;2023-08-30T02:16:26;12.43;;;11.40;;
6197;SDS011;3132;42.622;23.328;2023-08-30T02:18:53;14.37;;;11.67;;
6197;SDS011;3132;42.622;23.328;2023-08-30T02:21:19;13.43;;;12.13;;
6197;SDS011;3132;42.622;23.328;2023-08-30T02:23:48;14.13;;;12.97;;
6197;SDS011;3132;42.622;23.328;2023-08-30T02:26:14;12.20;;;11.10;;
6197;SDS011;3132;42.622;23.328;2023-08-30T02:28:40;13.60;;;12.50;;
6197;SDS011;3132;42.622;23.328;2023-08-30T02:31:05;13.33;;;11.93;;
6197;SDS011;3132;42.622;23.328;2023-08-30T02:33:31;13.37;;;12.27;;
6197;SDS011;3132;42.622;23.328;2023-08-30T02:35:56;12.67;;;11.77;;
6197;SDS011;3132;42.622;23.328;2023-08-30T02:38:21;13.13;;;11.77;;
6197;SDS011;3132;42.622;23.328;2023-08-30T02:40:47;13.17;;;11.97;;
6197;SDS011;3132;42.622;23.328;2023-08-30T02:43:12;12.90;;;11.50;;
6197;SDS011;3132;42.622;23.328;2023-08-30T02:45:38;17.07;;;12.00;;
6197;SDS011;3132;42.622;23.328;2023-08-30T02:48:03;14.03;;;12.80;;
6197;SDS011;3132;42.622;23.328;2023-08-30T02:50:29;13.13;;;11.60;;
6197;SDS011;3132;42.622;23.328;2023-08-30T02:52:54;12.47;;;11.23;;
6197;SDS011;3132;42.622;23.328;2023-08-30T02:55:20;13.70;;;12.13;;
6197;SDS011;3132;42.622;23.328;2023-08-30T02:57:45;12.80;;;11.57;;
6197;SDS011;3132;42.622;23.328;2023-08-30T03:00:11;13.27;;;11.87;;
6197;SDS011;3132;42.622;23.328;2023-08-30T03:02:37;12.30;;;11.30;;
6197;SDS011;3132;42.622;23.328;2023-08-30T03:05:03;13.90;;;10.87;;
6197;SDS011;3132;42.622;23.328;2023-08-30T03:07:29;12.60;;;11.40;;
6197;SDS011;3132;42.622;23.328;2023-08-30T03:09:55;12.40;;;11.23;;
6197;SDS011;3132;42.622;23.328;2023-08-30T03:12:20;12.67;;;11.57;;
6197;SDS011;3132;42.622;23.328;2023-08-30T03:14:46;11.97;;;10.97;;
6197;SDS011;3132;42.622;23.328;2023-08-30T03:17:12;12.60;;;11.47;;
6197;SDS011;3132;42.622;23.328;2023-08-30T03:19:37;12.73;;;11.50;;
6197;SDS011;3132;42.622;23.328;2023-08-30T03:22:03;12.93;;;11.57;;
6197;SDS011;3132;42.622;23.328;2023-08-30T03:24:28;12.13;;;11.13;;
6197;SDS011;3132;42.622;23.328;2023-08-30T03:26:54;12.20;;;11.30;;
6197;SDS011;3132;42.622;23.328;2023-08-30T03:29:19;12.47;;;11.23;;
6197;SDS011;3132;42.622;23.328;2023-08-30T03:31:44;11.80;;;10.80;;
6197;SDS011;3132;42.622;23.328;2023-08-30T03:34:10;10.97;;;9.97;;
6197;SDS011;3132;42.622;23.328;2023-08-30T03:36:36;12.70;;;11.70;;
6197;SDS011;3132;42.622;23.328;2023-08-30T03:39:02;11.47;;;10.47;;
6197;SDS011;3132;42.622;23.328;2023-08-30T03:41:28;12.57;;;11.37;;
6197;SDS011;3132;42.622;23.328;2023-08-30T03:43:53;12.63;;;11.33;;
6197;SDS011;3132;42.622;23.328;2023-08-30T03:46:18;13.13;;;11.73;;
6197;SDS011;3132;42.622;23.328;2023-08-30T03:48:44;14.17;;;10.93;;
6197;SDS011;3132;42.622;23.328;2023-08-30T03:51:09;10.90;;;9.83;;
6197;SDS011;3132;42.622;23.328;2023-08-30T03:53:35;11.53;;;10.43;;
6197;SDS011;3132;42.622;23.328;2023-08-30T03:56:00;14.03;;;11.50;;
6197;SDS011;3132;42.622;23.328;2023-08-30T03:58:25;10.80;;;9.93;;
6197;SDS011;3132;42.622;23.328;2023-08-30T04:00:51;10.33;;;9.57;;
6197;SDS011;3132;42.622;23.328;2023-08-30T04:03:16;12.33;;;10.47;;
6197;SDS011;3132;42.622;23.328;2023-08-30T04:05:42;12.13;;;10.07;;
6197;SDS011;3132;42.622;23.328;2023-08-30T04:08:07;10.53;;;9.73;;
6197;SDS011;3132;42.622;23.328;2023-08-30T04:13:02;10.73;;;9.67;;
6197;SDS011;3132;42.622;23.328;2023-08-30T04:15:32;12.63;;;11.33;;
6197;SDS011;3132;42.622;23.328;2023-08-30T04:17:59;12.73;;;10.63;;
6197;SDS011;3132;42.622;23.328;2023-08-30T04:20:24;14.77;;;10.00;;
6197;SDS011;3132;42.622;23.328;2023-08-30T04:22:49;10.27;;;9.30;;
6197;SDS011;3132;42.622;23.328;2023-08-30T04:25:15;10.73;;;9.70;;
6197;SDS011;3132;42.622;23.328;2023-08-30T04:27:40;9.97;;;9.07;;
6197;SDS011;3132;42.622;23.328;2023-08-30T04:30:06;11.67;;;10.50;;
6197;SDS011;3132;42.622;23.328;2023-08-30T04:32:31;9.70;;;8.90;;
6197;SDS011;3132;42.622;23.328;2023-08-30T04:34:57;10.13;;;9.07;;
6197;SDS011;3132;42.622;23.328;2023-08-30T04:37:23;9.52;;;8.80;;
6197;SDS011;3132;42.622;23.328;2023-08-30T04:39:48;10.40;;;8.70;;
6197;SDS011;3132;42.622;23.328;2023-08-30T04:42:14;12.70;;;9.57;;
6197;SDS011;3132;42.622;23.328;2023-08-30T04:44:40;10.30;;;9.57;;
6197;SDS011;3132;42.622;23.328;2023-08-30T04:47:05;10.85;;;9.80;;
6197;SDS011;3132;42.622;23.328;2023-08-30T04:49:30;13.57;;;9.63;;
6197;SDS011;3132;42.622;23.328;2023-08-30T04:51:56;13.80;;;9.75;;
6197;SDS011;3132;42.622;23.328;2023-08-30T04:54:21;12.45;;;10.55;;
6197;SDS011;3132;42.622;23.328;2023-08-30T04:56:46;15.05;;;10.82;;
6197;SDS011;3132;42.622;23.328;2023-08-30T04:59:12;17.52;;;11.82;;
6197;SDS011;3132;42.622;23.328;2023-08-30T05:01:37;13.70;;;11.80;;
6197;SDS011;3132;42.622;23.328;2023-08-30T05:04:04;12.23;;;10.75;;
6197;SDS011;3132;42.622;23.328;2023-08-30T05:06:30;16.10;;;12.20;;
6197;SDS011;3132;42.622;23.328;2023-08-30T05:08:56;14.20;;;12.85;;
6197;SDS011;3132;42.622;23.328;2023-08-30T05:11:23;14.13;;;12.45;;
6197;SDS011;3132;42.622;23.328;2023-08-30T05:13:48;15.57;;;12.57;;
6197;SDS011;3132;42.622;23.328;2023-08-30T05:16:14;13.90;;;12.43;;
6197;SDS011;3132;42.622;23.328;2023-08-30T05:18:39;17.08;;;11.80;;
6197;SDS011;3132;42.622;23.328;2023-08-30T05:21:04;13.10;;;11.88;;
6197;SDS011;3132;42.622;23.328;2023-08-30T05:23:30;17.70;;;12.80;;
6197;SDS011;3132;42.622;23.328;2023-08-30T05:25:56;14.43;;;12.57;;
6197;SDS011;3132;42.622;23.328;2023-08-30T05:28:21;13.70;;;12.03;;
6197;SDS011;3132;42.622;23.328;2023-08-30T05:30:47;13.65;;;12.20;;
6197;SDS011;3132;42.622;23.328;2023-08-30T05:33:12;16.55;;;12.88;;
6197;SDS011;3132;42.622;23.328;2023-08-30T05:35:38;13.45;;;11.75;;
6197;SDS011;3132;42.622;23.328;2023-08-30T05:38:03;16.25;;;12.45;;
6197;SDS011;3132;42.622;23.328;2023-08-30T05:40:28;13.15;;;11.50;;
6197;SDS011;3132;42.622;23.328;2023-08-30T05:42:54;11.40;;;10.02;;
6197;SDS011;3132;42.622;23.328;2023-08-30T05:45:20;12.10;;;10.90;;
6197;SDS011;3132;42.622;23.328;2023-08-30T05:47:45;11.80;;;10.70;;
6197;SDS011;3132;42.622;23.328;2023-08-30T05:50:11;11.82;;;10.57;;
6197;SDS011;3132;42.622;23.328;2023-08-30T05:52:36;14.48;;;9.95;;
6197;SDS011;3132;42.622;23.328;2023-08-30T05:55:06;12.48;;;10.30;;
6197;SDS011;3132;42.622;23.328;2023-08-30T05:57:34;10.30;;;9.20;;
6197;SDS011;3132;42.622;23.328;2023-08-30T06:00:00;10.02;;;9.13;;
6197;SDS011;3132;42.622;23.328;2023-08-30T06:02:26;10.55;;;9.60;;
6197;SDS011;3132;42.622;23.328;2023-08-30T06:04:52;11.60;;;10.02;;
6197;SDS011;3132;42.622;23.328;2023-08-30T06:07:17;12.45;;;10.38;;
6197;SDS011;3132;42.622;23.328;2023-08-30T06:09:43;12.07;;;9.27;;
6197;SDS011;3132;42.622;23.328;2023-08-30T06:12:09;11.55;;;10.35;;
6197;SDS011;3132;42.622;23.328;2023-08-30T06:14:34;10.50;;;9.57;;
6197;SDS011;3132;42.622;23.328;2023-08-30T06:17:00;12.07;;;8.80;;
6197;SDS011;3132;42.622;23.328;2023-08-30T06:19:25;10.25;;;9.35;;
6197;SDS011;3132;42.622;23.328;2023-08-30T06:21:51;13.27;;;12.05;;
6197;SDS011;3132;42.622;23.328;2023-08-30T06:24:16;16.35;;;10.52;;
6197;SDS011;3132;42.622;23.328;2023-08-30T06:26:41;11.13;;;9.50;;
6197;SDS011;3132;42.622;23.328;2023-08-30T06:29:07;14.73;;;9.18;;
6197;SDS011;3132;42.622;23.328;2023-08-30T06:31:32;10.10;;;9.20;;
6197;SDS011;3132;42.622;23.328;2023-08-30T06:33:57;10.35;;;9.55;;
6197;SDS011;3132;42.622;23.328;2023-08-30T06:36:23;9.50;;;8.80;;
6197;SDS011;3132;42.622;23.328;2023-08-30T06:38:49;11.02;;;8.88;;
6197;SDS011;3132;42.622;23.328;2023-08-30T06:41:14;9.82;;;8.88;;
6197;SDS011;3132;42.622;23.328;2023-08-30T06:43:40;10.20;;;9.38;;
6197;SDS011;3132;42.622;23.328;2023-08-30T06:46:05;11.80;;;9.52;;
6197;SDS011;3132;42.622;23.328;2023-08-30T06:48:30;10.07;;;9.02;;
6197;SDS011;3132;42.622;23.328;2023-08-30T06:50:59;9.70;;;8.90;;
6197;SDS011;3132;42.622;23.328;2023-08-30T06:53:25;9.55;;;8.45;;
6197;SDS011;3132;42.622;23.328;2023-08-30T06:56:01;9.93;;;9.02;;
6197;SDS011;3132;42.622;23.328;2023-08-30T06:58:27;10.45;;;9.45;;
6197;SDS011;3132;42.622;23.328;2023-08-30T07:00:53;10.02;;;8.90;;
6197;SDS011;3132;42.622;23.328;2023-08-30T07:03:18;10.18;;;9.05;;
6197;SDS011;3132;42.622;23.328;2023-08-30T07:05:44;10.80;;;9.82;;
6197;SDS011;3132;42.622;23.328;2023-08-30T07:08:09;11.75;;;8.93;;
6197;SDS011;3132;42.622;23.328;2023-08-30T07:10:35;9.80;;;9.00;;
6197;SDS011;3132;42.622;23.328;2023-08-30T07:13:01;9.55;;;8.63;;
6197;SDS011;3132;42.622;23.328;2023-08-30T07:15:27;11.02;;;9.20;;
6197;SDS011;3132;42.622;23.328;2023-08-30T07:17:53;10.55;;;9.50;;
6197;SDS011;3132;42.622;23.328;2023-08-30T07:20:19;9.85;;;9.02;;
6197;SDS011;3132;42.622;23.328;2023-08-30T07:22:45;10.15;;;9.23;;
6197;SDS011;3132;42.622;23.328;2023-08-30T07:25:11;9.88;;;8.88;;
6197;SDS011;3132;42.622;23.328;2023-08-30T07:27:37;10.15;;;9.13;;
6197;SDS011;3132;42.622;23.328;2023-08-30T07:30:03;10.68;;;9.57;;
6197;SDS011;3132;42.622;23.328;2023-08-30T07:32:29;9.32;;;8.43;;
6197;SDS011;3132;42.622;23.328;2023-08-30T07:34:55;11.88;;;9.40;;
6197;SDS011;3132;42.622;23.328;2023-08-30T07:37:20;10.10;;;9.38;;
6197;SDS011;3132;42.622;23.328;2023-08-30T07:39:46;10.30;;;9.20;;
6197;SDS011;3132;42.622;23.328;2023-08-30T07:42:11;10.70;;;9.75;;
6197;SDS011;3132;42.622;23.328;2023-08-30T07:44:37;12.50;;;9.23;;
6197;SDS011;3132;42.622;23.328;2023-08-30T07:47:03;10.25;;;9.25;;
6197;SDS011;3132;42.622;23.328;2023-08-30T07:49:28;11.20;;;8.80;;
6197;SDS011;3132;42.622;23.328;2023-08-30T07:51:54;9.55;;;8.75;;
6197;SDS011;3132;42.622;23.328;2023-08-30T07:54:19;9.82;;;9.02;;
6197;SDS011;3132;42.622;23.328;2023-08-30T07:56:45;10.02;;;9.10;;
6197;SDS011;3132;42.622;23.328;2023-08-30T07:59:10;10.63;;;9.82;;
6197;SDS011;3132;42.622;23.328;2023-08-30T08:01:35;9.40;;;8.60;;
6197;SDS011;3132;42.622;23.328;2023-08-30T08:04:01;9.30;;;8.60;;
6197;SDS011;3132;42.622;23.328;2023-08-30T08:06:26;9.10;;;8.40;;
6197;SDS011;3132;42.622;23.328;2023-08-30T08:08:51;11.07;;;8.82;;
6197;SDS011;3132;42.622;23.328;2023-08-30T08:11:17;8.82;;;8.13;;
6197;SDS011;3132;42.622;23.328;2023-08-30T08:13:42;10.40;;;8.48;;
6197;SDS011;3132;42.622;23.328;2023-08-30T08:16:08;8.70;;;7.75;;
6197;SDS011;3132;42.622;23.328;2023-08-30T08:18:33;10.70;;;8.45;;
6197;SDS011;3132;42.622;23.328;2023-08-30T08:20:58;11.23;;;7.78;;
6197;SDS011;3132;42.622;23.328;2023-08-30T08:23:24;9.60;;;8.90;;
6197;SDS011;3132;42.622;23.328;2023-08-30T08:25:49;9.35;;;7.55;;
6197;SDS011;3132;42.622;23.328;2023-08-30T08:28:21;10.32;;;9.27;;
6197;SDS011;3132;42.622;23.328;2023-08-30T08:30:46;9.15;;;8.55;;
6197;SDS011;3132;42.622;23.328;2023-08-30T08:33:15;8.45;;;7.63;;
6197;SDS011;3132;42.622;23.328;2023-08-30T08:35:42;9.07;;;8.25;;
6197;SDS011;3132;42.622;23.328;2023-08-30T08:38:07;9.73;;;8.80;;
6197;SDS011;3132;42.622;23.328;2023-08-30T08:40:36;9.48;;;8.55;;
6197;SDS011;3132;42.622;23.328;2023-08-30T08:43:05;14.30;;;9.50;;
6197;SDS011;3132;42.622;23.328;2023-08-30T08:45:37;13.35;;;9.65;;
6197;SDS011;3132;42.622;23.328;2023-08-30T08:48:03;10.25;;;9.25;;
6197;SDS011;3132;42.622;23.328;2023-08-30T08:50:29;9.35;;;8.50;;
6197;SDS011;3132;42.622;23.328;2023-08-30T08:52:55;10.55;;;9.60;;
6197;SDS011;3132;42.622;23.328;2023-08-30T08:55:21;9.07;;;8.20;;
6197;SDS011;3132;42.622;23.328;2023-08-30T08:57:47;10.98;;;8.88;;
6197;SDS011;3132;42.622;23.328;2023-08-30T09:00:13;11.38;;;10.07;;
6197;SDS011;3132;42.622;23.328;2023-08-30T09:02:39;9.73;;;8.90;;
6197;SDS011;3132;42.622;23.328;2023-08-30T09:05:06;10.85;;;9.10;;
6197;SDS011;3132;42.622;23.328;2023-08-30T09:07:32;10.77;;;9.02;;
6197;SDS011;3132;42.622;23.328;2023-08-30T09:09:58;9.75;;;8.85;;
6197;SDS011;3132;42.622;23.328;2023-08-30T09:12:24;10.20;;;9.20;;
6197;SDS011;3132;42.622;23.328;2023-08-30T09:14:53;9.25;;;8.38;;
6197;SDS011;3132;42.622;23.328;2023-08-30T09:17:21;9.13;;;8.02;;
6197;SDS011;3132;42.622;23.328;2023-08-30T09:19:46;8.90;;;8.18;;
6197;SDS011;3132;42.622;23.328;2023-08-30T09:22:12;11.27;;;8.73;;
6197;SDS011;3132;42.622;23.328;2023-08-30T09:24:40;9.43;;;8.65;;
6197;SDS011;3132;42.622;23.328;2023-08-30T09:27:06;9.75;;;8.88;;
6197;SDS011;3132;42.622;23.328;2023-08-30T09:29:32;10.00;;;9.00;;
6197;SDS011;3132;42.622;23.328;2023-08-30T09:31:57;12.27;;;8.43;;
6197;SDS011;3132;42.622;23.328;2023-08-30T09:34:23;9.77;;;8.77;;
6197;SDS011;3132;42.622;23.328;2023-08-30T09:36:50;12.18;;;8.52;;
6197;SDS011;3132;42.622;23.328;2023-08-30T09:39:16;12.98;;;8.88;;
6197;SDS011;3132;42.622;23.328;2023-08-30T09:41:42;10.38;;;9.48;;
6197;SDS011;3132;42.622;23.328;2023-08-30T09:44:09;13.75;;;9.93;;
6197;SDS011;3132;42.622;23.328;2023-08-30T09:46:42;10.60;;;9.73;;
6197;SDS011;3132;42.622;23.328;2023-08-30T09:49:24;10.70;;;9.15;;
6197;SDS011;3132;42.622;23.328;2023-08-30T09:51:51;12.02;;;9.52;;
6197;SDS011;3132;42.622;23.328;2023-08-30T09:54:19;9.82;;;9.13;;
6197;SDS011;3132;42.622;23.328;2023-08-30T09:56:46;10.50;;;9.52;;
6197;SDS011;3132;42.622;23.328;2023-08-30T09:59:13;14.13;;;9.32;;
6197;SDS011;3132;42.622;23.328;2023-08-30T10:01:40;11.32;;;9.90;;
6197;SDS011;3132;42.622;23.328;2023-08-30T10:04:07;10.85;;;9.82;;
6197;SDS011;3132;42.622;23.328;2023-08-30T10:06:39;14.38;;;9.52;;
6197;SDS011;3132;42.622;23.328;2023-08-30T10:09:06;10.38;;;9.18;;
6197;SDS011;3132;42.622;23.328;2023-08-30T10:11:34;11.43;;;8.88;;
6197;SDS011;3132;42.622;23.328;2023-08-30T10:14:01;9.60;;;8.93;;
6197;SDS011;3132;42.622;23.328;2023-08-30T10:16:29;11.15;;;8.77;;
6197;SDS011;3132;42.622;23.328;2023-08-30T10:19:16;10.68;;;9.88;;
6197;SDS011;3132;42.622;23.328;2023-08-30T10:24:28;11.57;;;9.90;;
6197;SDS011;3132;42.622;23.328;2023-08-30T10:27:00;9.57;;;8.80;;
6197;SDS011;3132;42.622;23.328;2023-08-30T10:29:28;11.52;;;10.43;;
6197;SDS011;3132;42.622;23.328;2023-08-30T10:32:00;9.63;;;8.77;;
6197;SDS011;3132;42.622;23.328;2023-08-30T10:34:31;11.30;;;9.65;;
6197;SDS011;3132;42.622;23.328;2023-08-30T10:37:01;10.52;;;9.73;;
6197;SDS011;3132;42.622;23.328;2023-08-30T10:39:41;10.02;;;9.27;;
6197;SDS011;3132;42.622;23.328;2023-08-30T10:42:08;10.63;;;9.65;;
6197;SDS011;3132;42.622;23.328;2023-08-30T10:44:35;9.63;;;8.73;;
6197;SDS011;3132;42.622;23.328;2023-08-30T10:47:17;11.20;;;10.02;;
6197;SDS011;3132;42.622;23.328;2023-08-30T10:49:56;10.82;;;9.82;;
6197;SDS011;3132;42.622;23.328;2023-08-30T10:52:23;10.52;;;9.43;;
6197;SDS011;3132;42.622;23.328;2023-08-30T10:54:49;9.77;;;8.95;;
6197;SDS011;3132;42.622;23.328;2023-08-30T10:57:20;11.35;;;10.23;;
6197;SDS011;3132;42.622;23.328;2023-08-30T11:00:05;10.35;;;9.45;;
6197;SDS011;3132;42.622;23.328;2023-08-30T11:02:34;11.00;;;10.10;;
6197;SDS011;3132;42.622;23.328;2023-08-30T11:05:04;10.52;;;9.52;;
6197;SDS011;3132;42.622;23.328;2023-08-30T11:07:32;13.35;;;10.52;;
6197;SDS011;3132;42.622;23.328;2023-08-30T11:09:57;11.75;;;10.70;;
6197;SDS011;3132;42.622;23.328;2023-08-30T11:12:23;10.63;;;9.75;;
6197;SDS011;3132;42.622;23.328;2023-08-30T11:14:51;11.38;;;10.40;;
6197;SDS011;3132;42.622;23.328;2023-08-30T11:17:18;10.77;;;9.98;;
6197;SDS011;3132;42.622;23.328;2023-08-30T11:19:44;11.10;;;10.02;;
6197;SDS011;3132;42.622;23.328;2023-08-30T11:22:10;11.70;;;10.70;;
6197;SDS011;3132;42.622;23.328;2023-08-30T11:24:37;10.98;;;9.98;;
6197;SDS011;3132;42.622;23.328;2023-08-30T11:27:03;10.68;;;9.70;;
6197;SDS011;3132;42.622;23.328;2023-08-30T11:29:29;11.48;;;10.27;;
6197;SDS011;3132;42.622;23.328;2023-08-30T11:31:54;11.50;;;10.50;;
6197;SDS011;3132;42.622;23.328;2023-08-30T11:34:20;11.77;;;10.73;;
6197;SDS011;3132;42.622;23.328;2023-08-30T11:36:49;11.25;;;10.23;;
6197;SDS011;3132;42.622;23.328;2023-08-30T11:39:16;10.73;;;9.82;;
6197;SDS011;3132;42.622;23.328;2023-08-30T11:41:42;12.15;;;10.95;;
6197;SDS011;3132;42.622;23.328;2023-08-30T11:44:08;11.38;;;10.15;;
6197;SDS011;3132;42.622;23.328;2023-08-30T11:46:34;12.05;;;10.85;;
6197;SDS011;3132;42.622;23.328;2023-08-30T11:49:00;12.52;;;11.35;;
6197;SDS011;3132;42.622;23.328;2023-08-30T11:51:25;11.73;;;10.60;;
6197;SDS011;3132;42.622;23.328;2023-08-30T11:53:51;11.25;;;10.18;;
6197;SDS011;3132;42.622;23.328;2023-08-30T11:56:17;11.43;;;10.30;;
6197;SDS011;3132;42.622;23.328;2023-08-30T11:58:44;16.23;;;9.63;;
6197;SDS011;3132;42.622;23.328;2023-08-30T12:01:09;11.52;;;10.20;;
6197;SDS011;3132;42.622;23.328;2023-08-30T12:03:35;11.93;;;10.82;;
6197;SDS011;3132;42.622;23.328;2023-08-30T12:06:01;11.40;;;10.27;;
6197;SDS011;3132;42.622;23.328;2023-08-30T12:08:31;11.07;;;9.98;;
6197;SDS011;3132;42.622;23.328;2023-08-30T12:10:57;11.02;;;9.93;;
6197;SDS011;3132;42.622;23.328;2023-08-30T12:13:26;11.43;;;10.30;;
6197;SDS011;3132;42.622;23.328;2023-08-30T12:15:53;11.75;;;10.55;;
6197;SDS011;3132;42.622;23.328;2023-08-30T12:18:25;13.35;;;10.40;;
6197;SDS011;3132;42.622;23.328;2023-08-30T12:21:00;10.93;;;10.05;;
6197;SDS011;3132;42.622;23.328;2023-08-30T12:23:27;11.73;;;10.73;;
6197;SDS011;3132;42.622;23.328;2023-08-30T12:25:58;10.40;;;9.68;;
6197;SDS011;3132;42.622;23.328;2023-08-30T12:28:24;13.65;;;10.68;;
6197;SDS011;3132;42.622;23.328;2023-08-30T12:30:52;11.10;;;10.23;;
6197;SDS011;3132;42.622;23.328;2023-08-30T12:33:18;11.13;;;10.07;;
6197;SDS011;3132;42.622;23.328;2023-08-30T12:35:44;11.52;;;10.20;;
6197;SDS011;3132;42.622;23.328;2023-08-30T12:38:10;11.10;;;10.07;;
6197;SDS011;3132;42.622;23.328;2023-08-30T12:40:36;11.90;;;10.00;;
6197;SDS011;3132;42.622;23.328;2023-08-30T12:43:03;11.10;;;10.10;;
6197;SDS011;3132;42.622;23.328;2023-08-30T12:45:29;11.35;;;10.25;;
6197;SDS011;3132;42.622;23.328;2023-08-30T12:47:54;11.20;;;10.10;;
6197;SDS011;3132;42.622;23.328;2023-08-30T12:50:20;11.00;;;10.10;;
6197;SDS011;3132;42.622;23.328;2023-08-30T12:52:46;10.75;;;9.88;;
6197;SDS011;3132;42.622;23.328;2023-08-30T12:55:13;10.55;;;9.73;;
6197;SDS011;3132;42.622;23.328;2023-08-30T12:57:38;11.00;;;10.02;;
6197;SDS011;3132;42.622;23.328;2023-08-30T13:00:04;13.13;;;11.02;;
6197;SDS011;3132;42.622;23.328;2023-08-30T13:02:30;12.00;;;10.30;;
6197;SDS011;3132;42.622;23.328;2023-08-30T13:04:55;11.68;;;9.90;;
6197;SDS011;3132;42.622;23.328;2023-08-30T13:07:21;15.45;;;11.00;;
6197;SDS011;3132;42.622;23.328;2023-08-30T13:09:46;10.73;;;9.82;;
6197;SDS011;3132;42.622;23.328;2023-08-30T13:12:11;10.90;;;9.90;;
6197;SDS011;3132;42.622;23.328;2023-08-30T13:14:37;14.05;;;11.05;;
6197;SDS011;3132;42.622;23.328;2023-08-30T13:17:02;11.88;;;10.88;;
6197;SDS011;3132;42.622;23.328;2023-08-30T13:19:28;10.88;;;9.88;;
6197;SDS011;3132;42.622;23.328;2023-08-30T13:21:53;11.95;;;10.48;;
6197;SDS011;3132;42.622;23.328;2023-08-30T13:24:19;11.63;;;10.27;;
6197;SDS011;3132;42.622;23.328;2023-08-30T13:26:45;10.55;;;9.65;;
6197;SDS011;3132;42.622;23.328;2023-08-30T13:29:11;12.85;;;10.25;;
6197;SDS011;3132;42.622;23.328;2023-08-30T13:31:36;11.35;;;10.18;;
6197;SDS011;3132;42.622;23.328;2023-08-30T13:34:02;10.85;;;9.02;;
6197;SDS011;3132;42.622;23.328;2023-08-30T13:36:27;11.45;;;10.35;;
6197;SDS011;3132;42.622;23.328;2023-08-30T13:38:53;9.10;;;8.30;;
6197;SDS011;3132;42.622;23.328;2023-08-30T13:41:18;8.65;;;7.82;;
6197;SDS011;3132;42.622;23.328;2023-08-30T13:43:44;9.77;;;8.80;;
6197;SDS011;3132;42.622;23.328;2023-08-30T13:46:09;9.85;;;8.95;;
6197;SDS011;3132;42.622;23.328;2023-08-30T13:48:35;9.70;;;8.85;;
6197;SDS011;3132;42.622;23.328;2023-08-30T13:51:01;9.70;;;8.18;;
6197;SDS011;3132;42.622;23.328;2023-08-30T13:53:26;14.45;;;9.45;;
6197;SDS011;3132;42.622;23.328;2023-08-30T13:55:53;8.93;;;8.10;;
6197;SDS011;3132;42.622;23.328;2023-08-30T13:58:18;9.25;;;8.32;;
6197;SDS011;3132;42.622;23.328;2023-08-30T14:00:44;9.65;;;8.73;;
6197;SDS011;3132;42.622;23.328;2023-08-30T14:03:10;9.75;;;8.85;;
6197;SDS011;3132;42.622;23.328;2023-08-30T14:05:36;11.55;;;8.82;;
6197;SDS011;3132;42.622;23.328;2023-08-30T14:08:05;10.00;;;8.60;;
6197;SDS011;3132;42.622;23.328;2023-08-30T14:10:31;11.35;;;9.13;;
6197;SDS011;3132;42.622;23.328;2023-08-30T14:12:56;11.02;;;9.10;;
6197;SDS011;3132;42.622;23.328;2023-08-30T14:15:22;9.63;;;8.68;;
6197;SDS011;3132;42.622;23.328;2023-08-30T14:17:48;10.00;;;9.07;;
6197;SDS011;3132;42.622;23.328;2023-08-30T14:20:13;9.30;;;8.45;;
6197;SDS011;3132;42.622;23.328;2023-08-30T14:22:38;8.90;;;8.10;;
6197;SDS011;3132;42.622;23.328;2023-08-30T14:25:04;10.27;;;9.32;;
6197;SDS011;3132;42.622;23.328;2023-08-30T14:27:30;8.80;;;7.75;;
6197;SDS011;3132;42.622;23.328;2023-08-30T14:29:55;8.88;;;8.23;;
6197;SDS011;3132;42.622;23.328;2023-08-30T14:32:21;9.15;;;8.35;;
6197;SDS011;3132;42.622;23.328;2023-08-30T14:34:46;8.45;;;7.90;;
6197;SDS011;3132;42.622;23.328;2023-08-30T14:37:11;9.77;;;8.85;;
6197;SDS011;3132;42.622;23.328;2023-08-30T14:39:37;9.15;;;8.35;;
6197;SDS011;3132;42.622;23.328;2023-08-30T14:42:02;8.75;;;8.02;;
6197;SDS011;3132;42.622;23.328;2023-08-30T14:44:28;8.77;;;7.93;;
6197;SDS011;3132;42.622;23.328;2023-08-30T14:46:53;9.45;;;8.32;;
6197;SDS011;3132;42.622;23.328;2023-08-30T14:49:18;9.55;;;8.85;;